Time;durP1;ratioP1;P1;durP2;ratioP2;P2;SDS_P1;SDS_P2;PMS_P1;PMS_P2;Temp;Humidity;BMP_temperature;BMP_pressure;BME280_temperature;BME280_humidity;BME280_pressure;Samples;Min_cycle;Max_cycle;Signal;HPM_P1;HPM_P2
2021/09/02 00:01:53;;;;;;;7.80;7.05;;;18.30;99.90;;;;;;5012187;28;20030;-84
2021/09/02 00:04:18;;;;;;;8.25;7.45;;;18.40;99.90;;;;;;5012453;28;20473;-84
2021/09/02 00:06:44;;;;;;;7.95;6.60;;;18.30;99.90;;;;;;5013004;28;20026;-84
2021/09/02 00:09:09;;;;;;;7.57;6.78;;;18.20;99.90;;;;;;5012378;28;20068;-83
2021/09/02 00:11:35;;;;;;;8.73;7.75;;;18.30;99.90;;;;;;5012051;28;20100;-84
2021/09/02 00:14:01;;;;;;;8.40;7.60;;;18.20;99.90;;;;;;5012116;28;20026;-84
2021/09/02 00:16:26;;;;;;;8.98;6.78;;;18.20;99.90;;;;;;5012347;28;20391;-85
2021/09/02 00:18:52;;;;;;;8.10;7.30;;;18.20;99.90;;;;;;5012216;28;20452;-84
2021/09/02 00:21:17;;;;;;;7.70;7.00;;;18.10;99.90;;;;;;5012077;28;20040;-84
2021/09/02 00:23:43;;;;;;;7.95;7.20;;;18.00;99.90;;;;;;5011725;28;20411;-84
2021/09/02 00:26:09;;;;;;;9.60;7.50;;;17.90;99.90;;;;;;5012381;28;20129;-84
2021/09/02 00:28:34;;;;;;;7.88;7.07;;;17.90;99.90;;;;;;5012015;28;20037;-84
2021/09/02 00:31:00;;;;;;;9.25;6.78;;;17.90;99.90;;;;;;5012491;28;20030;-84
2021/09/02 00:33:26;;;;;;;7.13;6.32;;;17.90;99.90;;;;;;5012186;28;20041;-84
2021/09/02 00:35:51;;;;;;;7.05;6.35;;;17.80;99.90;;;;;;5012102;28;20226;-85
2021/09/02 00:38:17;;;;;;;9.35;6.70;;;17.80;99.90;;;;;;5011536;28;20040;-85
2021/09/02 00:40:42;;;;;;;7.88;7.15;;;17.80;99.90;;;;;;5011650;28;20049;-84
2021/09/02 00:43:08;;;;;;;7.45;6.75;;;17.70;99.90;;;;;;5011974;28;20037;-84
2021/09/02 00:45:34;;;;;;;7.13;6.25;;;17.60;99.90;;;;;;5012148;28;20033;-84
2021/09/02 00:47:59;;;;;;;7.65;6.55;;;17.60;99.90;;;;;;5011864;28;20406;-84
2021/09/02 00:50:27;;;;;;;9.90;5.85;;;17.60;99.90;;;;;;5011295;28;20026;-84
2021/09/02 00:52:52;;;;;;;6.68;5.90;;;17.60;99.90;;;;;;5011309;28;20516;-84
2021/09/02 00:55:18;;;;;;;9.43;5.72;;;17.60;99.90;;;;;;5011775;28;20164;-84
2021/09/02 00:57:44;;;;;;;6.72;6.03;;;17.50;99.90;;;;;;5012035;28;20030;-84
2021/09/02 01:00:15;;;;;;;6.93;6.18;;;17.70;99.90;;;;;;5011238;28;20040;-84
2021/09/02 01:02:43;;;;;;;7.00;6.38;;;17.70;99.90;;;;;;5011236;28;20034;-84
2021/09/02 01:05:10;;;;;;;7.82;6.05;;;17.70;99.90;;;;;;5010869;28;20026;-84
2021/09/02 01:07:36;;;;;;;7.13;6.25;;;17.70;99.90;;;;;;5011518;28;20028;-84
2021/09/02 01:10:04;;;;;;;8.50;6.55;;;17.70;99.90;;;;;;5011387;28;20029;-84
2021/09/02 01:12:36;;;;;;;7.00;5.95;;;17.60;99.90;;;;;;5011953;28;20046;-84
2021/09/02 01:15:12;;;;;;;6.80;6.15;;;17.60;99.90;;;;;;5011309;28;20053;-84
2021/09/02 01:17:46;;;;;;;9.40;6.07;;;17.50;99.90;;;;;;5012749;28;20462;-84
2021/09/02 01:20:14;;;;;;;6.80;6.20;;;17.50;99.90;;;;;;5011388;28;20036;-84
2021/09/02 01:22:41;;;;;;;6.55;5.90;;;17.40;99.90;;;;;;5011067;28;20076;-84
2021/09/02 01:25:10;;;;;;;8.68;6.15;;;17.40;99.90;;;;;;5011210;28;20033;-84
2021/09/02 01:27:36;;;;;;;7.75;6.25;;;17.40;99.90;;;;;;5011868;28;20088;-84
2021/09/02 01:30:06;;;;;;;9.23;5.95;;;17.40;99.90;;;;;;5011326;28;20041;-84
2021/09/02 01:32:37;;;;;;;7.50;6.03;;;17.40;99.90;;;;;;5011646;28;20056;-85
2021/09/02 01:35:06;;;;;;;6.65;5.85;;;17.40;99.90;;;;;;5010652;28;20034;-84
2021/09/02 01:43:29;;;;;;;6.22;5.57;;;17.20;99.90;;;;;;5089282;23;20553;-89
2021/09/02 01:45:54;;;;;;;6.18;5.57;;;17.10;99.90;;;;;;4989756;28;20022;-89
2021/09/02 01:48:20;;;;;;;6.30;5.43;;;17.20;99.90;;;;;;4996241;28;20121;-88
2021/09/02 01:50:46;;;;;;;6.47;5.88;;;17.20;99.90;;;;;;4996156;28;20031;-89
2021/09/02 01:53:14;;;;;;;7.18;5.50;;;17.20;99.90;;;;;;4978541;28;20081;-88
2021/09/02 01:55:41;;;;;;;6.95;6.25;;;17.00;99.90;;;;;;4995978;28;20109;-89
2021/09/02 01:58:07;;;;;;;7.78;5.78;;;17.00;99.90;;;;;;4991937;28;20034;-89
2021/09/02 02:00:34;;;;;;;8.18;5.45;;;17.00;99.90;;;;;;4996730;28;20029;-88
2021/09/02 02:03:01;;;;;;;6.95;5.57;;;17.00;99.90;;;;;;4996448;28;20061;-88
2021/09/02 02:05:26;;;;;;;7.30;5.43;;;17.10;99.90;;;;;;4995696;28;20054;-88
2021/09/02 02:07:52;;;;;;;8.55;6.20;;;17.10;99.90;;;;;;4996343;28;20070;-88
2021/09/02 02:10:26;;;;;;;6.90;6.30;;;17.00;99.90;;;;;;4975052;28;20597;-89
2021/09/02 02:12:52;;;;;;;6.00;5.50;;;17.10;99.90;;;;;;4994745;28;20038;-89
2021/09/02 02:15:17;;;;;;;6.32;5.40;;;17.10;99.90;;;;;;5000380;28;20038;-88
2021/09/02 02:17:44;;;;;;;6.57;5.75;;;17.00;99.90;;;;;;4999956;28;20551;-89
2021/09/02 02:20:10;;;;;;;6.88;5.40;;;16.90;99.90;;;;;;4982298;28;20050;-88
2021/09/02 02:22:36;;;;;;;6.40;5.53;;;16.90;99.90;;;;;;4998819;28;20124;-89
2021/09/02 02:25:03;;;;;;;6.65;5.55;;;16.90;99.90;;;;;;4996322;28;20031;-89
2021/09/02 02:27:28;;;;;;;5.88;5.38;;;16.80;99.90;;;;;;5000426;28;20415;-89
2021/09/02 02:29:54;;;;;;;5.93;5.32;;;16.80;99.90;;;;;;4999610;28;20031;-89
2021/09/02 02:32:19;;;;;;;6.38;5.18;;;16.80;99.90;;;;;;4999385;28;20117;-89
2021/09/02 02:34:45;;;;;;;6.25;5.65;;;16.80;99.90;;;;;;4999380;28;20030;-88
2021/09/02 02:37:11;;;;;;;8.43;5.68;;;16.80;99.90;;;;;;4995188;28;20026;-88
2021/09/02 02:39:39;;;;;;;11.13;6.20;;;16.90;99.90;;;;;;4982449;28;20023;-88
2021/09/02 02:42:07;;;;;;;7.10;5.38;;;16.80;99.90;;;;;;4998774;28;20043;-88
2021/09/02 02:44:33;;;;;;;7.38;5.28;;;16.80;99.90;;;;;;4999112;28;20038;-89
2021/09/02 02:46:59;;;;;;;6.93;5.90;;;16.80;99.90;;;;;;4999331;28;20030;-89
2021/09/02 02:49:24;;;;;;;7.55;4.90;;;16.70;99.90;;;;;;4996713;28;20037;-88
2021/09/02 02:51:52;;;;;;;6.72;4.90;;;16.70;99.90;;;;;;4997577;28;20399;-89
2021/09/02 02:54:18;;;;;;;5.28;4.82;;;16.60;99.90;;;;;;4999364;28;20031;-89
2021/09/02 02:56:43;;;;;;;6.13;4.90;;;16.50;99.90;;;;;;4981112;28;20398;-88
2021/09/02 02:59:09;;;;;;;5.60;5.05;;;16.60;99.90;;;;;;4999265;28;20030;-88
2021/09/02 03:01:35;;;;;;;6.40;5.20;;;16.60;99.90;;;;;;4997719;28;20112;-88
2021/09/02 03:04:00;;;;;;;7.78;5.25;;;16.70;99.90;;;;;;4978027;28;20038;-89
2021/09/02 03:06:26;;;;;;;6.40;5.40;;;16.70;99.90;;;;;;4999502;28;20027;-89
2021/09/02 03:08:52;;;;;;;6.55;5.60;;;16.70;99.90;;;;;;4998471;28;20479;-88
2021/09/02 03:11:17;;;;;;;7.90;5.32;;;16.60;99.90;;;;;;4981205;28;20022;-88
2021/09/02 03:13:43;;;;;;;6.30;5.50;;;16.50;99.90;;;;;;4980906;28;20032;-89
2021/09/02 03:16:09;;;;;;;7.68;5.70;;;16.50;99.90;;;;;;4994853;28;20030;-89
2021/09/02 03:18:35;;;;;;;6.03;5.43;;;16.50;99.90;;;;;;4998957;28;20550;-89
2021/09/02 03:21:00;;;;;;;5.68;5.10;;;16.50;99.90;;;;;;4998956;28;20503;-88
2021/09/02 03:23:26;;;;;;;7.60;5.68;;;16.50;99.90;;;;;;4998425;28;20065;-89
2021/09/02 03:25:51;;;;;;;5.93;5.32;;;16.50;99.90;;;;;;4980634;28;20045;-89
2021/09/02 03:28:17;;;;;;;6.72;5.30;;;16.50;99.90;;;;;;4994777;28;20117;-88
2021/09/02 03:30:43;;;;;;;6.38;5.40;;;16.40;99.90;;;;;;4997883;28;20445;-88
2021/09/02 03:33:08;;;;;;;5.97;5.32;;;16.40;99.90;;;;;;4998421;28;20085;-88
2021/09/02 03:35:34;;;;;;;5.82;5.22;;;16.50;99.90;;;;;;4998688;28;20030;-88
2021/09/02 03:37:59;;;;;;;6.53;5.05;;;16.50;99.90;;;;;;4980613;28;20040;-88
2021/09/02 03:40:25;;;;;;;7.18;5.30;;;16.60;99.90;;;;;;4995298;28;20018;-88
2021/09/02 03:42:51;;;;;;;7.53;6.10;;;16.60;99.90;;;;;;4996018;28;20058;-88
2021/09/02 03:45:16;;;;;;;8.88;5.60;;;16.50;99.90;;;;;;4998470;28;20037;-88
2021/09/02 03:47:47;;;;;;;6.07;5.47;;;16.50;99.90;;;;;;4998359;28;20058;-89
2021/09/02 03:50:14;;;;;;;6.95;5.47;;;16.50;99.90;;;;;;4980577;28;20023;-88
2021/09/02 03:52:39;;;;;;;6.63;5.28;;;16.40;99.90;;;;;;4997320;28;20033;-88
2021/09/02 03:55:05;;;;;;;6.03;5.43;;;16.40;99.90;;;;;;4993866;28;20031;-88
2021/09/02 03:57:31;;;;;;;5.95;5.28;;;16.30;99.90;;;;;;4998311;28;20034;-88
2021/09/02 03:59:57;;;;;;;5.85;5.18;;;16.30;99.90;;;;;;4997325;28;20053;-88
2021/09/02 04:02:22;;;;;;;8.15;5.65;;;16.40;99.90;;;;;;4980167;28;20356;-89
2021/09/02 04:04:48;;;;;;;6.75;5.53;;;16.50;99.90;;;;;;4997667;28;20022;-88
2021/09/02 04:07:13;;;;;;;6.20;5.45;;;16.50;99.90;;;;;;4993832;28;20026;-88
2021/09/02 04:09:39;;;;;;;8.73;6.28;;;16.60;99.90;;;;;;4997858;28;20045;-88
2021/09/02 04:12:05;;;;;;;6.22;5.45;;;16.50;99.90;;;;;;4997303;28;20038;-88
2021/09/02 04:14:31;;;;;;;7.03;5.75;;;16.40;99.90;;;;;;4997616;28;20028;-88
2021/09/02 04:16:56;;;;;;;6.88;5.43;;;16.30;99.90;;;;;;4979933;28;20057;-88
2021/09/02 04:19:23;;;;;;;7.50;6.00;;;16.30;99.90;;;;;;4977154;28;20030;-88
2021/09/02 04:21:49;;;;;;;6.90;5.53;;;16.20;99.90;;;;;;4978430;28;20096;-88
2021/09/02 04:24:15;;;;;;;6.75;5.97;;;16.10;99.90;;;;;;4997370;28;20034;-88
2021/09/02 04:26:40;;;;;;;5.97;5.32;;;16.10;99.90;;;;;;4979628;28;20053;-88
2021/09/02 04:29:06;;;;;;;5.68;5.18;;;16.00;99.90;;;;;;4997348;28;20105;-88
2021/09/02 04:31:32;;;;;;;6.32;5.60;;;16.00;99.90;;;;;;4995424;28;20122;-88
2021/09/02 04:33:57;;;;;;;6.15;5.55;;;16.10;99.90;;;;;;4994400;28;20033;-88
2021/09/02 04:36:23;;;;;;;6.47;5.78;;;16.10;99.90;;;;;;4997206;28;20030;-89
2021/09/02 04:38:48;;;;;;;6.82;5.95;;;16.10;99.90;;;;;;4997045;28;20490;-89
2021/09/02 04:41:14;;;;;;;5.95;5.32;;;16.10;99.90;;;;;;4997401;28;20034;-88
2021/09/02 04:43:39;;;;;;;6.35;5.75;;;16.20;99.90;;;;;;4995836;28;20100;-88
2021/09/02 04:46:05;;;;;;;6.25;5.65;;;16.20;99.90;;;;;;4994086;28;20387;-88
2021/09/02 04:48:31;;;;;;;7.10;5.43;;;16.20;99.90;;;;;;4997672;28;20077;-88
2021/09/02 04:50:56;;;;;;;7.30;6.10;;;16.20;99.90;;;;;;4997906;28;20494;-88
2021/09/02 04:53:22;;;;;;;7.13;6.43;;;16.10;99.90;;;;;;4997002;28;20033;-88
2021/09/02 04:55:48;;;;;;;8.98;6.15;;;16.20;99.90;;;;;;4997040;28;20026;-88
2021/09/02 04:58:14;;;;;;;6.45;5.78;;;16.30;99.90;;;;;;4992324;28;20050;-88
2021/09/02 05:00:40;;;;;;;6.13;5.53;;;16.20;99.90;;;;;;4997226;28;20026;-88
2021/09/02 05:03:06;;;;;;;7.43;5.70;;;16.30;99.90;;;;;;4996583;28;20034;-88
2021/09/02 05:05:32;;;;;;;7.90;6.07;;;16.30;99.90;;;;;;4996925;28;20483;-88
2021/09/02 05:07:59;;;;;;;8.60;6.47;;;16.30;99.90;;;;;;4996162;28;20037;-89
2021/09/02 05:10:24;;;;;;;7.18;6.20;;;16.10;99.90;;;;;;4993785;28;20030;-88
2021/09/02 05:12:50;;;;;;;6.95;6.25;;;16.10;99.90;;;;;;4995503;28;20049;-89
2021/09/02 05:15:17;;;;;;;11.07;6.80;;;16.10;99.90;;;;;;4980305;28;20114;-88
2021/09/02 05:17:44;;;;;;;7.53;6.53;;;16.20;99.90;;;;;;4996253;28;20054;-89
2021/09/02 05:20:10;;;;;;;8.80;6.90;;;16.20;99.90;;;;;;4996183;28;20576;-88
2021/09/02 05:22:36;;;;;;;9.48;7.30;;;16.10;99.90;;;;;;5007440;28;20034;-88
2021/09/02 05:25:02;;;;;;;9.25;7.25;;;16.20;99.90;;;;;;4993233;28;20101;-88
2021/09/02 05:27:28;;;;;;;11.20;7.75;;;16.20;99.90;;;;;;4997151;28;20089;-88
2021/09/02 05:29:54;;;;;;;11.55;7.65;;;16.30;99.90;;;;;;5001190;28;20030;-88
2021/09/02 05:32:19;;;;;;;9.65;7.75;;;16.10;99.90;;;;;;5003476;28;20137;-88
2021/09/02 05:34:45;;;;;;;9.40;7.63;;;16.00;99.90;;;;;;4989888;28;20056;-88
2021/09/02 05:37:10;;;;;;;11.60;7.38;;;16.20;99.90;;;;;;4976520;28;20030;-88
2021/09/02 05:39:36;;;;;;;9.93;7.53;;;16.20;99.90;;;;;;4996890;28;20026;-88
2021/09/02 05:42:02;;;;;;;12.00;8.23;;;16.30;99.90;;;;;;4996642;28;20049;-87
2021/09/02 05:44:28;;;;;;;13.07;8.50;;;16.20;99.90;;;;;;4978956;28;20038;-87
2021/09/02 05:46:55;;;;;;;12.65;7.15;;;16.20;99.90;;;;;;4996130;28;20027;-88
2021/09/02 05:49:21;;;;;;;13.80;8.40;;;16.10;99.90;;;;;;4996603;28;20068;-88
2021/09/02 05:51:46;;;;;;;11.15;7.03;;;16.20;99.90;;;;;;4999801;28;20510;-88
2021/09/02 05:54:12;;;;;;;10.88;7.45;;;16.10;99.90;;;;;;5000211;28;20086;-88
2021/09/02 05:56:38;;;;;;;10.98;7.35;;;16.20;99.90;;;;;;4999941;28;20094;-88
2021/09/02 05:59:03;;;;;;;10.40;7.38;;;16.30;99.90;;;;;;5000301;28;20108;-88
2021/09/02 06:01:29;;;;;;;10.07;8.25;;;16.30;99.90;;;;;;4997474;28;20041;-88
2021/09/02 06:03:54;;;;;;;12.85;8.13;;;16.40;99.90;;;;;;4997977;28;20033;-88
2021/09/02 06:06:20;;;;;;;13.57;11.02;;;16.40;99.90;;;;;;4999847;28;20033;-88
2021/09/02 06:08:46;;;;;;;17.92;10.30;;;16.50;99.90;;;;;;5008112;28;20038;-88
2021/09/02 06:11:11;;;;;;;16.65;10.32;;;16.50;99.90;;;;;;5007268;28;20058;-88
2021/09/02 06:13:37;;;;;;;14.00;9.77;;;16.70;99.90;;;;;;4998753;28;20037;-88
2021/09/02 06:16:03;;;;;;;12.98;9.20;;;16.70;99.90;;;;;;4996105;28;20084;-88
2021/09/02 06:18:30;;;;;;;11.68;10.52;;;16.80;99.90;;;;;;5000133;28;20023;-88
2021/09/02 06:20:56;;;;;;;12.50;10.77;;;16.80;99.90;;;;;;4999251;28;20113;-87
2021/09/02 06:23:22;;;;;;;11.52;10.32;;;16.70;99.90;;;;;;4981851;28;20034;-88
2021/09/02 06:25:47;;;;;;;11.55;8.43;;;16.70;99.90;;;;;;4999988;28;20092;-88
2021/09/02 06:28:13;;;;;;;9.60;8.60;;;16.70;99.90;;;;;;4995120;28;20117;-88
2021/09/02 06:30:39;;;;;;;11.20;9.18;;;16.90;99.90;;;;;;5006993;28;20022;-88
2021/09/02 06:33:05;;;;;;;15.68;9.60;;;16.90;99.90;;;;;;5000066;28;20066;-88
2021/09/02 06:35:31;;;;;;;12.32;8.77;;;16.90;99.90;;;;;;4999109;28;20026;-88
2021/09/02 06:37:56;;;;;;;11.57;9.30;;;16.90;99.90;;;;;;4999695;28;20030;-88
2021/09/02 06:40:22;;;;;;;13.73;9.07;;;17.10;99.90;;;;;;4996291;28;20033;-88
2021/09/02 06:42:48;;;;;;;10.07;8.88;;;17.20;99.90;;;;;;4997703;28;20417;-88
2021/09/02 06:45:14;;;;;;;10.88;8.95;;;17.20;99.90;;;;;;4999758;28;20072;-88
2021/09/02 06:47:41;;;;;;;10.77;8.75;;;17.30;99.90;;;;;;4999062;28;20034;-88
2021/09/02 06:50:08;;;;;;;16.58;9.23;;;17.20;99.90;;;;;;4981157;28;20069;-88
2021/09/02 06:52:34;;;;;;;11.55;9.88;;;17.30;99.90;;;;;;4997398;28;20099;-88
2021/09/02 06:55:00;;;;;;;15.40;9.52;;;17.30;99.90;;;;;;4978410;28;20394;-88
2021/09/02 06:57:25;;;;;;;13.73;9.60;;;17.30;99.90;;;;;;4999582;28;20037;-88
2021/09/02 06:59:51;;;;;;;12.20;9.55;;;17.50;99.90;;;;;;4998067;28;20038;-89
2021/09/02 07:02:17;;;;;;;12.82;9.20;;;17.50;99.90;;;;;;4998588;28;20124;-88
2021/09/02 07:04:42;;;;;;;9.88;8.90;;;17.60;99.90;;;;;;4998945;28;20022;-88
2021/09/02 07:07:08;;;;;;;16.45;9.95;;;17.70;99.90;;;;;;4994743;28;20066;-88
2021/09/02 07:09:34;;;;;;;10.10;9.10;;;17.70;99.90;;;;;;4999088;28;20042;-88
2021/09/02 07:12:00;;;;;;;12.48;9.32;;;17.80;99.90;;;;;;4998367;28;20026;-87
2021/09/02 07:14:26;;;;;;;18.02;9.77;;;17.80;99.90;;;;;;4999386;28;20368;-88
2021/09/02 07:16:52;;;;;;;14.88;9.77;;;17.90;99.90;;;;;;4998190;28;20041;-89
2021/09/02 07:19:17;;;;;;;15.65;9.57;;;18.00;99.90;;;;;;4994682;28;20030;-88
2021/09/02 07:21:43;;;;;;;14.13;9.70;;;18.10;99.90;;;;;;5014050;28;20046;-89
2021/09/02 07:24:09;;;;;;;15.52;10.73;;;18.20;99.90;;;;;;4998452;28;20372;-88
2021/09/02 07:26:36;;;;;;;18.15;10.43;;;18.30;99.90;;;;;;4998155;28;20019;-88
2021/09/02 07:29:02;;;;;;;15.52;10.82;;;18.40;99.90;;;;;;4998605;28;20084;-88
2021/09/02 07:31:27;;;;;;;14.75;10.82;;;18.50;99.90;;;;;;4995524;28;20018;-88
2021/09/02 07:33:53;;;;;;;14.20;10.23;;;18.50;99.90;;;;;;4996262;28;20026;-88
2021/09/02 07:36:19;;;;;;;17.65;10.45;;;18.50;99.90;;;;;;4981657;28;20030;-88
2021/09/02 07:38:44;;;;;;;15.52;10.43;;;18.60;99.90;;;;;;4998093;28;20044;-88
2021/09/02 07:41:10;;;;;;;15.20;10.52;;;18.70;99.90;;;;;;4997977;28;20521;-88
2021/09/02 07:43:35;;;;;;;12.15;9.85;;;18.90;99.90;;;;;;4996590;28;20088;-88
2021/09/02 07:46:01;;;;;;;14.68;10.27;;;19.00;99.90;;;;;;4995823;28;20037;-89
2021/09/02 07:48:27;;;;;;;12.85;9.95;;;19.00;99.90;;;;;;4998770;28;20050;-88
2021/09/02 07:50:52;;;;;;;12.65;9.88;;;19.20;99.90;;;;;;4998053;28;20031;-88
2021/09/02 07:53:18;;;;;;;14.77;10.02;;;19.20;99.90;;;;;;4984600;28;20124;-89
2021/09/02 07:55:44;;;;;;;14.43;10.18;;;19.20;99.90;;;;;;5009444;28;20036;-88
2021/09/02 07:58:10;;;;;;;15.60;10.18;;;19.20;99.90;;;;;;4993646;28;20513;-89
2021/09/02 08:00:37;;;;;;;15.73;9.43;;;19.30;99.90;;;;;;4997958;28;20459;-88
2021/09/02 08:03:03;;;;;;;14.10;9.20;;;19.30;99.90;;;;;;4997892;28;20044;-88
2021/09/02 08:05:28;;;;;;;9.45;8.45;;;19.60;99.90;;;;;;4997953;28;20491;-89
2021/09/02 08:07:54;;;;;;;13.02;8.68;;;19.80;99.90;;;;;;4997341;28;20037;-89
2021/09/02 08:10:23;;;;;;;13.52;8.35;;;20.00;99.90;;;;;;4993229;28;20030;-89
2021/09/02 08:12:49;;;;;;;14.77;8.68;;;20.10;99.90;;;;;;4979218;28;20034;-88
2021/09/02 08:15:17;;;;;;;12.23;8.65;;;20.10;99.90;;;;;;4997860;28;20037;-88
2021/09/02 08:17:45;;;;;;;13.02;8.35;;;20.20;99.90;;;;;;4997612;28;20034;-89
2021/09/02 08:20:12;;;;;;;10.30;8.80;;;20.20;99.90;;;;;;4997377;28;20046;-89
2021/09/02 08:22:39;;;;;;;11.95;7.95;;;20.30;99.90;;;;;;4996041;28;20042;-88
2021/09/02 08:25:06;;;;;;;9.27;8.20;;;20.40;99.90;;;;;;4976873;28;20030;-88
2021/09/02 08:27:32;;;;;;;8.77;7.03;;;20.50;99.90;;;;;;4997920;28;20031;-88
2021/09/02 08:29:58;;;;;;;10.70;8.52;;;20.60;99.90;;;;;;4997095;28;20052;-89
2021/09/02 08:32:24;;;;;;;9.23;7.80;;;20.80;99.90;;;;;;4997515;28;20057;-89
2021/09/02 08:34:49;;;;;;;11.57;9.35;;;20.80;99.90;;;;;;4997169;28;20022;-89
2021/09/02 08:37:15;;;;;;;13.95;11.82;;;20.80;99.90;;;;;;4976024;28;20121;-90
2021/09/02 08:39:41;;;;;;;17.25;14.65;;;21.00;99.90;;;;;;4997326;28;20061;-88
2021/09/02 08:42:06;;;;;;;14.30;12.63;;;21.30;99.90;;;;;;4979911;28;20046;-89
2021/09/02 08:44:32;;;;;;;15.00;9.70;;;21.50;99.90;;;;;;4996918;28;20045;-89
2021/09/02 08:47:00;;;;;;;12.30;7.57;;;21.60;99.90;;;;;;4997172;28;20029;-89
2021/09/02 08:49:26;;;;;;;9.55;6.85;;;21.70;99.90;;;;;;4994230;28;20018;-89
2021/09/02 08:51:51;;;;;;;11.68;8.40;;;21.80;99.90;;;;;;4995083;28;20545;-89
2021/09/02 08:54:20;;;;;;;10.35;7.35;;;21.80;99.90;;;;;;4997573;28;20077;-89
2021/09/02 08:56:46;;;;;;;8.32;6.75;;;21.70;99.90;;;;;;4996847;28;20037;-89
2021/09/02 08:59:12;;;;;;;8.60;6.10;;;21.80;99.90;;;;;;4997016;28;20042;-89
2021/09/02 09:01:38;;;;;;;9.13;5.90;;;21.90;99.90;;;;;;4996183;28;20070;-89
2021/09/02 09:04:11;;;;;;;8.13;6.28;;;22.10;99.90;;;;;;4993409;28;20044;-89
2021/09/02 09:06:37;;;;;;;9.05;5.93;;;22.10;99.90;;;;;;4997238;28;20023;-89
2021/09/02 09:09:14;;;;;;;7.07;5.90;;;22.20;99.90;;;;;;4997110;28;20109;-89
2021/09/02 09:11:47;;;;;;;11.15;5.45;;;22.40;99.90;;;;;;4979268;28;20030;-89
2021/09/02 09:14:20;;;;;;;8.60;5.70;;;22.50;99.90;;;;;;4996254;28;20026;-90
2021/09/02 09:16:51;;;;;;;6.72;5.68;;;22.50;99.90;;;;;;4996620;28;20030;-89
2021/09/02 09:19:43;;;;;;;6.35;5.68;;;22.60;99.90;;;;;;4977983;28;20022;-91
2021/09/02 09:22:12;;;;;;;6.15;5.55;;;22.70;99.90;;;;;;4992512;28;20042;-90
2021/09/02 09:24:46;;;;;;;7.88;6.13;;;22.80;99.90;;;;;;4979640;28;20023;-90
2021/09/02 09:27:13;;;;;;;7.70;5.95;;;22.60;99.90;;;;;;4996456;28;20046;-90
2021/09/02 09:29:39;;;;;;;6.95;5.68;;;22.80;99.90;;;;;;4978800;28;20084;-90
2021/09/02 09:32:18;;;;;;;6.78;5.85;;;22.80;99.90;;;;;;4996584;28;20034;-91
2021/09/02 09:34:52;;;;;;;6.10;5.50;;;23.00;99.90;;;;;;4996695;28;20029;-90
2021/09/02 09:37:20;;;;;;;8.60;5.97;;;23.00;99.90;;;;;;5008088;28;20046;-91
2021/09/02 09:39:48;;;;;;;10.35;6.18;;;23.20;99.90;;;;;;4996208;28;20475;-91
2021/09/02 09:42:15;;;;;;;8.88;5.70;;;23.20;99.90;;;;;;4996493;28;20041;-91
2021/09/02 09:44:41;;;;;;;6.28;5.35;;;23.50;99.90;;;;;;4979143;28;20046;-90
2021/09/02 09:47:08;;;;;;;7.10;5.93;;;23.90;99.90;;;;;;4996819;28;20034;-91
2021/09/02 09:49:55;;;;;;;7.40;5.60;;;24.10;99.90;;;;;;4994994;28;20088;-91
2021/09/02 09:52:25;;;;;;;6.82;5.40;;;24.30;99.90;;;;;;4978772;28;20026;-91
2021/09/02 09:54:52;;;;;;;6.55;5.03;;;24.70;99.90;;;;;;4995579;28;20379;-91
2021/09/02 09:57:18;;;;;;;6.43;5.68;;;25.60;99.90;;;;;;5009110;28;20037;-91
2021/09/02 09:59:45;;;;;;;6.28;5.68;;;29.00;99.90;;;;;;4999656;28;20022;-92
2021/09/02 10:02:12;;;;;;;7.38;5.20;;;34.10;99.90;;;;;;4999958;28;20045;-91
2021/09/02 10:04:42;;;;;;;5.63;5.03;;;36.70;96.90;;;;;;4990022;28;20014;-92
2021/09/02 10:07:09;;;;;;;6.78;5.25;;;38.90;91.20;;;;;;4975421;28;20030;-90
2021/09/02 10:09:35;;;;;;;5.35;4.70;;;39.00;84.70;;;;;;4997051;28;20027;-90
2021/09/02 10:12:02;;;;;;;5.53;4.55;;;40.20;77.80;;;;;;4995770;28;20041;-89
2021/09/02 10:14:27;;;;;;;5.32;4.82;;;40.30;77.40;;;;;;4996390;28;20033;-89
2021/09/02 10:16:53;;;;;;;5.60;5.00;;;40.40;67.70;;;;;;4979400;28;20402;-90
2021/09/02 10:19:20;;;;;;;6.15;5.55;;;42.10;62.10;;;;;;4975100;28;20085;-89
2021/09/02 10:21:47;;;;;;;6.45;5.45;;;43.20;56.90;;;;;;4995765;28;20436;-89
2021/09/02 10:24:31;;;;;;;5.93;5.43;;;42.70;59.50;;;;;;4996470;28;20065;-90
2021/09/02 10:26:57;;;;;;;6.20;5.38;;;42.70;57.30;;;;;;4995691;28;20034;-90
2021/09/02 10:29:39;;;;;;;5.35;4.63;;;42.70;53.70;;;;;;4978639;28;20030;-90
2021/09/02 10:32:23;;;;;;;6.22;5.28;;;43.10;55.70;;;;;;4978592;28;20383;-90
2021/09/02 10:34:53;;;;;;;5.72;4.80;;;44.40;49.40;;;;;;4980915;28;20026;-90
2021/09/02 10:37:34;;;;;;;5.75;5.25;;;44.70;48.20;;;;;;4996029;28;20038;-89
2021/09/02 10:40:06;;;;;;;7.00;6.30;;;44.50;47.30;;;;;;4996728;28;20125;-90
2021/09/02 10:42:45;;;;;;;6.05;5.55;;;44.30;47.60;;;;;;4999760;28;20054;-90
2021/09/02 10:45:31;;;;;;;6.80;5.53;;;45.10;45.20;;;;;;4999624;28;20026;-90
2021/09/02 10:48:17;;;;;;;6.18;5.57;;;45.60;42.70;;;;;;4999586;28;20027;-90
2021/09/02 10:50:44;;;;;;;5.47;4.97;;;45.80;40.60;;;;;;5000074;28;20029;-90
2021/09/02 10:53:12;;;;;;;5.93;5.43;;;45.70;40.60;;;;;;4999381;28;20181;-90
2021/09/02 10:55:47;;;;;;;7.18;4.97;;;44.10;44.90;;;;;;4997960;28;20045;-90
2021/09/02 10:58:46;;;;;;;5.22;4.82;;;45.10;40.50;;;;;;4979550;28;20108;-90
2021/09/02 11:01:21;;;;;;;5.40;4.90;;;45.40;41.10;;;;;;4979628;28;20019;-90
2021/09/02 11:03:47;;;;;;;5.15;4.75;;;46.00;35.80;;;;;;4989897;28;20026;-91
2021/09/02 11:06:15;;;;;;;7.88;6.05;;;46.80;33.80;;;;;;4997974;28;20026;-91
2021/09/02 11:08:41;;;;;;;6.57;5.40;;;44.50;38.20;;;;;;4981490;28;20034;-90
2021/09/02 11:11:21;;;;;;;6.18;5.63;;;45.00;38.70;;;;;;4981510;28;20037;-91
2021/09/02 11:13:49;;;;;;;7.20;6.07;;;44.30;38.10;;;;;;4977650;28;20518;-91
2021/09/02 11:16:23;;;;;;;5.97;5.40;;;42.80;52.10;;;;;;4961897;28;20085;-90
2021/09/02 11:18:54;;;;;;;5.80;5.10;;;38.90;53.50;;;;;;5007840;28;20029;-90
2021/09/02 11:21:24;;;;;;;6.75;5.50;;;37.40;58.50;;;;;;4981011;28;20041;-90
2021/09/02 11:24:00;;;;;;;7.20;5.20;;;35.50;63.70;;;;;;4989750;28;20045;-90
2021/09/02 11:26:43;;;;;;;5.45;4.90;;;36.30;65.90;;;;;;5004716;28;20101;-90
2021/09/02 11:29:24;;;;;;;5.65;5.25;;;41.40;53.30;;;;;;4998522;28;20022;-91
2021/09/02 11:32:12;;;;;;;7.57;4.80;;;42.70;44.20;;;;;;4981923;28;20479;-90
2021/09/02 11:34:39;;;;;;;5.10;4.60;;;44.60;39.50;;;;;;4997599;28;20038;-91
2021/09/02 11:37:06;;;;;;;6.97;5.05;;;45.90;34.80;;;;;;4995943;28;20034;-90
2021/09/02 11:39:33;;;;;;;5.22;4.82;;;46.00;32.50;;;;;;4981350;28;20038;-90
2021/09/02 11:42:10;;;;;;;5.70;5.20;;;45.90;32.60;;;;;;4998667;28;20034;-91
2021/09/02 11:44:38;;;;;;;6.47;5.95;;;43.80;37.00;;;;;;5005365;28;20040;-91
2021/09/02 11:47:12;;;;;;;7.47;5.00;;;41.50;43.90;;;;;;5007302;28;20040;-91
2021/09/02 11:49:39;;;;;;;6.18;5.63;;;39.70;48.50;;;;;;4994237;28;20030;-91
2021/09/02 11:52:06;;;;;;;5.70;5.18;;;39.10;51.60;;;;;;4992615;28;20042;-91
2021/09/02 11:54:34;;;;;;;5.70;5.20;;;39.60;48.40;;;;;;4998373;28;20026;-91
2021/09/02 11:57:00;;;;;;;5.35;4.93;;;36.90;56.20;;;;;;4998513;28;20034;-91
2021/09/02 11:59:26;;;;;;;5.38;4.90;;;36.30;61.60;;;;;;4980514;28;20029;-91
2021/09/02 12:01:53;;;;;;;5.82;5.20;;;36.10;55.80;;;;;;4980883;28;20034;-91
2021/09/02 12:04:28;;;;;;;5.78;5.25;;;36.20;62.40;;;;;;4995214;28;20030;-91
2021/09/02 12:07:02;;;;;;;6.40;5.03;;;35.80;63.80;;;;;;4978828;28;20143;-91
2021/09/02 12:09:35;;;;;;;5.55;4.90;;;35.50;67.00;;;;;;4997010;28;20041;-91
2021/09/02 12:12:02;;;;;;;5.55;5.10;;;35.00;81.00;;;;;;4980367;28;20061;-91
2021/09/02 12:14:31;;;;;;;6.25;4.93;;;35.00;67.40;;;;;;4998263;28;20038;-91
2021/09/02 12:17:09;;;;;;;4.90;4.50;;;34.80;68.80;;;;;;4998237;28;20017;-91
2021/09/02 12:19:55;;;;;;;7.82;4.68;;;34.00;74.10;;;;;;4997150;28;20026;-90
2021/09/02 12:22:24;;;;;;;5.63;4.80;;;33.50;75.60;;;;;;4962240;28;20042;-89
2021/09/02 12:24:50;;;;;;;5.95;4.70;;;33.20;78.50;;;;;;4996531;28;20026;-89
2021/09/02 12:27:16;;;;;;;6.07;4.70;;;32.90;72.80;;;;;;4998394;28;20076;-90
2021/09/02 12:29:46;;;;;;;5.70;5.18;;;32.70;76.40;;;;;;4997274;28;20030;-89
2021/09/02 12:32:17;;;;;;;5.47;4.88;;;32.40;81.30;;;;;;4997469;28;20045;-90
2021/09/02 12:34:43;;;;;;;6.82;5.28;;;32.50;81.10;;;;;;4979443;28;20446;-89
2021/09/02 12:37:11;;;;;;;8.18;5.15;;;32.80;78.00;;;;;;4994006;28;20030;-91
2021/09/02 12:39:53;;;;;;;5.38;4.88;;;34.50;74.10;;;;;;5008805;28;20079;-91
2021/09/02 12:42:27;;;;;;;6.82;5.10;;;35.20;74.60;;;;;;4979490;28;20050;-90
2021/09/02 12:45:08;;;;;;;5.60;5.10;;;38.10;60.70;;;;;;4997787;28;20054;-91
2021/09/02 12:47:35;;;;;;;4.95;4.45;;;39.50;57.90;;;;;;4979980;28;20046;-91
2021/09/02 12:50:11;;;;;;;5.75;4.97;;;38.60;56.60;;;;;;4997567;28;20402;-90
2021/09/02 12:52:37;;;;;;;5.28;4.88;;;37.50;59.00;;;;;;4978568;28;20040;-91